createdAt,value
2022-11-16T00:02:18.538Z,95.82
2022-11-16T00:04:44.858Z,95.70
2022-11-16T00:07:11.275Z,95.90
2022-11-16T00:09:37.741Z,96.22
2022-11-16T00:12:06.828Z,95.57
2022-11-16T00:14:34.927Z,95.90
2022-11-16T00:17:02.090Z,96.11
2022-11-16T00:19:29.074Z,96.38
2022-11-16T00:21:55.355Z,96.26
2022-11-16T00:24:22.812Z,97.02
2022-11-16T00:26:50.283Z,96.34
2022-11-16T00:29:22.295Z,96.27
2022-11-16T00:31:49.311Z,96.19
2022-11-16T00:34:15.883Z,96.83
2022-11-16T00:36:42.651Z,96.14
2022-11-16T00:39:13.398Z,96.46
2022-11-16T00:41:40.752Z,96.58
2022-11-16T00:44:07.203Z,96.73
2022-11-16T00:46:33.874Z,96.84
2022-11-16T00:49:00.352Z,96.63
2022-11-16T00:51:26.836Z,96.50
2022-11-16T00:53:53.126Z,97.05
2022-11-16T00:56:19.439Z,96.87
2022-11-16T00:58:45.750Z,96.90
2022-11-16T01:01:12.293Z,96.89
2022-11-16T01:03:39.095Z,96.85
2022-11-16T01:06:08.293Z,96.79
2022-11-16T01:08:36.477Z,96.70
2022-11-16T01:11:03.687Z,96.61
2022-11-16T01:13:29.963Z,96.83
2022-11-16T01:15:56.247Z,96.97
2022-11-16T01:18:22.550Z,96.90
2022-11-16T01:20:48.952Z,97.07
2022-11-16T01:23:15.337Z,96.94
2022-11-16T01:25:41.627Z,96.76
2022-11-16T01:28:07.926Z,96.73
2022-11-16T01:30:34.430Z,96.58
2022-11-16T01:33:00.768Z,96.81
2022-11-16T01:35:27.048Z,96.94
2022-11-16T01:37:53.322Z,96.62
2022-11-16T01:40:19.609Z,97.03
2022-11-16T01:42:45.922Z,96.72
2022-11-16T01:45:38.450Z,97.42
2022-11-16T01:48:05.355Z,96.60
2022-11-16T01:50:31.846Z,96.76
2022-11-16T01:53:02.641Z,96.89
2022-11-16T01:55:32.083Z,96.64
2022-11-16T01:57:59.253Z,97.01
2022-11-16T02:00:25.759Z,97.06
2022-11-16T02:02:52.330Z,97.03
2022-11-16T02:05:25.367Z,96.81
2022-11-16T02:08:13.312Z,97.22
2022-11-16T02:10:59.511Z,96.89
2022-11-16T02:13:40.383Z,97.11
2022-11-16T02:16:09.635Z,96.91
2022-11-16T02:18:51.980Z,96.73
2022-11-16T02:21:35.107Z,96.89
2022-11-16T02:24:29.526Z,97.04
2022-11-16T02:27:12.013Z,97.30
2022-11-16T02:29:38.271Z,97.57
2022-11-16T02:32:11.859Z,97.57
2022-11-16T02:35:16.855Z,97.21
2022-11-16T02:37:50.980Z,97.05
2022-11-16T02:40:21.023Z,97.05
2022-11-16T02:42:55.269Z,97.03
2022-11-16T02:45:29.214Z,97.53
2022-11-16T02:48:01.825Z,97.32
2022-11-16T02:50:29.842Z,97.43
2022-11-16T02:52:56.538Z,97.21
2022-11-16T02:55:24.024Z,97.72
2022-11-16T02:58:02.465Z,97.51
2022-11-16T03:00:51.625Z,97.88
2022-11-16T03:03:25.889Z,97.26
2022-11-16T03:06:03.726Z,97.38
2022-11-16T03:08:39.459Z,97.62
2022-11-16T03:11:08.548Z,97.28
2022-11-16T03:13:37.387Z,97.05
2022-11-16T03:16:11.907Z,97.00
2022-11-16T03:18:39.882Z,96.67
2022-11-16T03:21:24.527Z,96.66
2022-11-16T03:23:51.347Z,96.47
2022-11-16T03:26:22.561Z,96.45
2022-11-16T03:29:03.013Z,97.01
2022-11-16T03:31:34.485Z,96.82
2022-11-16T03:34:07.312Z,96.56
2022-11-16T03:36:37.210Z,96.18
2022-11-16T03:39:10.241Z,96.68
2022-11-16T03:41:39.555Z,96.08
2022-11-16T03:44:07.678Z,96.39
2022-11-16T03:46:34.565Z,96.32
2022-11-16T03:49:01.623Z,95.88
2022-11-16T03:51:28.106Z,95.99
2022-11-16T03:53:54.426Z,95.70
2022-11-16T03:56:20.782Z,95.68
2022-11-16T03:58:47.076Z,95.48
2022-11-16T04:01:13.456Z,95.24
2022-11-16T04:03:39.780Z,95.39
2022-11-16T04:06:06.528Z,94.29
2022-11-16T04:08:33.623Z,95.00
2022-11-16T04:11:00.238Z,94.66
2022-11-16T04:13:31.474Z,94.72
2022-11-16T04:15:57.782Z,94.53
2022-11-16T04:18:24.339Z,94.65
2022-11-16T04:20:50.666Z,94.75
2022-11-16T04:23:17.205Z,94.57
2022-11-16T04:25:45.127Z,94.56
2022-11-16T04:28:11.536Z,94.74
2022-11-16T04:30:38.061Z,94.79
2022-11-16T04:33:04.395Z,94.57
2022-11-16T04:35:30.678Z,94.59
2022-11-16T04:37:58.598Z,94.35
2022-11-16T04:40:27.030Z,94.84
2022-11-16T04:42:55.048Z,94.75
2022-11-16T04:45:22.127Z,95.02
2022-11-16T04:47:49.416Z,95.14
2022-11-16T04:50:16.665Z,94.95
2022-11-16T04:52:43.265Z,95.21
2022-11-16T04:55:10.472Z,95.48
2022-11-16T04:57:37.022Z,95.36
2022-11-16T05:00:05.513Z,95.16
2022-11-16T05:02:31.864Z,95.53
2022-11-16T05:04:58.228Z,95.89
2022-11-16T05:07:24.647Z,95.90
2022-11-16T05:09:51.059Z,96.44
2022-11-16T05:12:20.858Z,96.06
2022-11-16T05:14:47.435Z,95.99
2022-11-16T05:17:16.966Z,96.45
2022-11-16T05:19:43.739Z,96.57
2022-11-16T05:22:10.080Z,96.58
2022-11-16T05:24:37.824Z,96.47
2022-11-16T05:27:11.328Z,96.60
2022-11-16T05:29:38.071Z,96.21
2022-11-16T05:32:05.656Z,96.36
2022-11-16T05:34:32.866Z,96.83
2022-11-16T05:37:01.025Z,96.39
2022-11-16T05:39:27.390Z,96.87
2022-11-16T05:41:53.875Z,96.52
2022-11-16T05:44:20.203Z,96.54
2022-11-16T05:46:47.100Z,96.54
2022-11-16T05:49:14.538Z,96.34
2022-11-16T05:51:42.973Z,96.24
2022-11-16T05:54:12.815Z,96.53
2022-11-16T05:56:40.569Z,96.90
2022-11-16T05:59:06.888Z,96.67
2022-11-16T06:01:33.752Z,97.00
2022-11-16T06:04:00.971Z,96.81
2022-11-16T06:06:28.465Z,96.91
2022-11-16T06:08:54.981Z,96.90
2022-11-16T06:11:21.941Z,97.11
2022-11-16T06:13:48.448Z,97.09
2022-11-16T06:16:15.202Z,97.11
2022-11-16T06:18:44.589Z,97.02
2022-11-16T06:21:12.664Z,97.15
2022-11-16T06:23:39.198Z,97.82
2022-11-16T06:26:07.210Z,96.81
2022-11-16T06:28:34.680Z,97.07
2022-11-16T06:31:01.916Z,97.19
2022-11-16T06:33:33.197Z,96.98
2022-11-16T06:36:02.429Z,96.65
2022-11-16T06:38:28.774Z,96.69
2022-11-16T06:40:57.735Z,96.63
2022-11-16T06:43:25.905Z,96.43
2022-11-16T06:45:55.278Z,96.47
2022-11-16T06:48:23.392Z,96.46
2022-11-16T06:50:51.026Z,96.53
2022-11-16T06:53:19.406Z,96.19
2022-11-16T06:55:47.266Z,96.18
2022-11-16T06:58:13.781Z,96.30
2022-11-16T07:00:40.114Z,95.66
2022-11-16T07:03:08.236Z,95.67
2022-11-16T07:05:38.544Z,95.78
2022-11-16T07:08:04.826Z,94.83
2022-11-16T07:10:31.158Z,95.54
2022-11-16T07:12:57.711Z,95.03
2022-11-16T07:15:23.984Z,95.95
2022-11-16T07:17:50.458Z,95.06
2022-11-16T07:20:16.839Z,95.92
2022-11-16T07:22:43.286Z,95.93
2022-11-16T07:25:09.867Z,95.11
2022-11-16T07:27:37.229Z,95.02
2022-11-16T07:30:04.427Z,95.19
2022-11-16T07:32:30.848Z,94.79
2022-11-16T07:34:59.256Z,94.70
2022-11-16T07:37:25.994Z,94.42
2022-11-16T07:39:52.329Z,94.18
2022-11-16T07:42:18.662Z,92.24
2022-11-16T07:44:45.030Z,90.99
2022-11-16T07:47:11.370Z,89.69
2022-11-16T07:49:37.727Z,88.81
2022-11-16T07:52:04.169Z,88.03
2022-11-16T07:54:30.484Z,87.60
2022-11-16T07:56:56.775Z,86.62
2022-11-16T07:59:23.085Z,87.28
2022-11-16T08:01:49.578Z,87.12
2022-11-16T08:04:16.006Z,87.07
2022-11-16T08:06:42.310Z,86.08
2022-11-16T08:09:09.399Z,85.93
2022-11-16T08:11:35.756Z,85.79
2022-11-16T08:14:02.095Z,86.96
2022-11-16T08:16:28.398Z,87.35
2022-11-16T08:18:54.697Z,87.82
2022-11-16T08:21:21.010Z,88.39
2022-11-16T08:23:47.558Z,87.43
2022-11-16T08:26:16.172Z,87.88
2022-11-16T08:28:45.953Z,86.37
2022-11-16T08:31:19.292Z,85.20
2022-11-16T08:33:45.601Z,84.38
2022-11-16T08:36:14.422Z,83.37
2022-11-16T08:38:40.936Z,81.53
2022-11-16T08:41:07.361Z,83.59
2022-11-16T08:43:33.709Z,82.82
2022-11-16T08:46:01.674Z,82.29
2022-11-16T08:48:28.122Z,80.43
2022-11-16T08:51:16.281Z,82.17
2022-11-16T08:53:41.089Z,80.86
2022-11-16T08:56:11.678Z,82.89
2022-11-16T08:58:38.442Z,85.00
2022-11-16T09:01:10.294Z,84.88
2022-11-16T09:03:38.386Z,82.68
2022-11-16T09:06:06.410Z,82.61
2022-11-16T09:08:33.714Z,83.72
2022-11-16T09:11:04.648Z,85.34
2022-11-16T09:13:31.469Z,81.88
2022-11-16T09:16:01.712Z,80.30
2022-11-16T09:18:29.163Z,79.12
2022-11-16T09:20:56.174Z,79.19
2022-11-16T09:23:25.557Z,77.73
2022-11-16T09:25:52.625Z,79.46
2022-11-16T09:28:19.683Z,79.28
2022-11-16T09:30:48.652Z,81.84
2022-11-16T09:33:15.041Z,83.07
2022-11-16T09:35:42.030Z,81.78
2022-11-16T09:38:08.618Z,83.27
2022-11-16T09:40:38.086Z,80.83
2022-11-16T09:43:45.530Z,80.20
2022-11-16T09:46:27.424Z,78.68
2022-11-16T09:48:57.772Z,79.87
2022-11-16T09:51:27.289Z,78.97
2022-11-16T09:54:04.998Z,76.97
2022-11-16T09:56:33.838Z,78.38
2022-11-16T09:59:06.155Z,77.92
2022-11-16T10:01:44.094Z,77.71
2022-11-16T10:04:18.014Z,75.59
2022-11-16T10:07:02.962Z,76.73
2022-11-16T10:09:30.275Z,75.20
2022-11-16T10:12:15.304Z,75.47
2022-11-16T10:14:54.598Z,73.32
2022-11-16T10:17:48.678Z,70.46
2022-11-16T10:20:38.309Z,72.04
2022-11-16T10:23:22.365Z,69.35
2022-11-16T10:26:11.819Z,68.79
2022-11-16T10:28:55.583Z,67.58
2022-11-16T10:31:42.977Z,67.12
2022-11-16T10:34:25.541Z,65.69
2022-11-16T10:36:57.674Z,64.80
2022-11-16T10:39:25.306Z,67.92
2022-11-16T10:41:51.714Z,68.58
2022-11-16T10:44:24.005Z,66.39
2022-11-16T10:47:17.335Z,66.35
2022-11-16T10:49:54.783Z,71.70
2022-11-16T10:52:22.425Z,71.63
2022-11-16T10:54:49.204Z,69.91
2022-11-16T10:57:15.660Z,68.52
2022-11-16T10:59:52.113Z,71.59
2022-11-16T11:02:24.603Z,71.75
2022-11-16T11:05:17.780Z,74.56
2022-11-16T11:07:49.359Z,73.42
2022-11-16T11:10:29.544Z,67.92
2022-11-16T11:13:10.730Z,68.92
2022-11-16T11:15:44.357Z,66.07
2022-11-16T11:18:22.772Z,65.52
2022-11-16T11:21:05.632Z,70.76
2022-11-16T11:23:41.858Z,72.80
2022-11-16T11:26:23.638Z,69.45
2022-11-16T11:28:50.682Z,69.32
2022-11-16T11:31:20.746Z,67.18
2022-11-16T11:33:53.355Z,65.78
2022-11-16T11:36:22.370Z,67.42
2022-11-16T11:39:25.035Z,69.01
2022-11-16T11:42:01.890Z,66.54
2022-11-16T11:44:42.482Z,65.51
2022-11-16T11:50:24.820Z,63.68
2022-11-16T11:53:19.662Z,70.29
2022-11-16T11:55:46.412Z,72.78
2022-11-16T11:58:19.135Z,74.14
2022-11-16T12:01:25.301Z,75.13
2022-11-16T12:04:24.111Z,75.50
2022-11-16T12:07:21.162Z,76.60
2022-11-16T12:10:26.565Z,76.34
2022-11-16T12:13:16.100Z,76.82
2022-11-16T12:15:58.315Z,77.28
2022-11-16T12:19:00.140Z,77.67
2022-11-16T12:21:44.047Z,76.96
2022-11-16T12:24:37.993Z,76.67
2022-11-16T12:27:38.217Z,76.66
2022-11-16T12:30:10.644Z,76.41
2022-11-16T12:32:46.176Z,75.27
2022-11-16T12:35:21.783Z,73.67
2022-11-16T12:37:57.245Z,68.57
2022-11-16T12:41:05.873Z,65.35
2022-11-16T12:43:56.397Z,64.50
2022-11-16T12:46:42.224Z,65.99
2022-11-16T12:49:18.099Z,61.97
2022-11-16T12:52:07.679Z,58.62
2022-11-16T12:55:24.282Z,61.14
2022-11-16T12:58:02.285Z,59.98
2022-11-16T13:00:34.996Z,59.11
2022-11-16T13:03:22.759Z,59.00
2022-11-16T13:06:08.284Z,59.35
2022-11-16T13:08:53.464Z,58.00
2022-11-16T13:11:39.839Z,60.77
2022-11-16T13:14:46.800Z,59.97
2022-11-16T13:17:27.203Z,62.38
2022-11-16T13:20:14.957Z,62.17
2022-11-16T13:22:52.116Z,60.67
2022-11-16T13:25:40.396Z,60.87
2022-11-16T13:28:21.879Z,61.77
2022-11-16T13:31:05.006Z,64.04
2022-11-16T13:33:34.467Z,66.61
2022-11-16T13:36:35.605Z,64.82
2022-11-16T13:39:02.090Z,67.87
2022-11-16T13:41:33.459Z,69.85
2022-11-16T13:44:00.844Z,70.31
2022-11-16T13:46:55.168Z,70.92
2022-11-16T13:49:32.819Z,71.20
2022-11-16T13:52:28.589Z,72.07
2022-11-16T13:54:55.957Z,73.11
2022-11-16T13:57:32.158Z,72.47
2022-11-16T14:00:01.660Z,73.14
2022-11-16T14:02:32.697Z,73.15
2022-11-16T14:05:25.182Z,72.52
2022-11-16T14:07:51.506Z,72.22
2022-11-16T14:10:32.794Z,72.19
2022-11-16T14:13:00.800Z,71.79
2022-11-16T14:15:35.725Z,69.59
2022-11-16T14:18:32.852Z,70.17
2022-11-16T14:21:26.279Z,71.46
2022-11-16T14:24:02.800Z,72.33
2022-11-16T14:26:48.243Z,72.73
2022-11-16T14:29:52.269Z,73.70
2022-11-16T14:32:29.856Z,73.54
2022-11-16T14:34:58.317Z,74.38
2022-11-16T14:37:39.971Z,74.28
2022-11-16T14:40:18.564Z,74.22
2022-11-16T14:43:15.996Z,74.73
2022-11-16T14:45:48.547Z,74.43
2022-11-16T14:48:18.024Z,75.08
2022-11-16T14:50:59.191Z,74.59
2022-11-16T14:53:27.564Z,75.29
2022-11-16T14:56:05.815Z,75.88
2022-11-16T14:58:32.128Z,75.48
2022-11-16T15:01:01.099Z,75.32
2022-11-16T15:03:33.390Z,76.64
2022-11-16T15:06:01.906Z,76.89
2022-11-16T15:08:35.137Z,77.44
2022-11-16T15:11:01.852Z,77.48
2022-11-16T15:13:28.405Z,77.63
2022-11-16T15:16:15.981Z,77.86
2022-11-16T15:18:55.758Z,78.82
2022-11-16T15:21:23.350Z,78.98
2022-11-16T15:24:15.500Z,79.23
2022-11-16T15:26:40.259Z,79.23
2022-11-16T15:29:14.760Z,79.33
2022-11-16T15:31:43.393Z,79.62
2022-11-16T15:34:16.327Z,79.79
2022-11-16T15:36:43.135Z,80.40
2022-11-16T15:39:19.912Z,80.74
2022-11-16T15:41:47.294Z,80.79
2022-11-16T15:44:16.908Z,81.17
2022-11-16T15:46:55.132Z,81.20
2022-11-16T15:49:37.297Z,81.50
2022-11-16T15:52:05.272Z,81.47
2022-11-16T15:54:33.391Z,81.66
2022-11-16T15:57:09.139Z,82.21
2022-11-16T15:59:37.031Z,82.17
2022-11-16T16:02:04.103Z,82.64
2022-11-16T16:04:32.045Z,82.56
2022-11-16T16:07:00.203Z,83.19
2022-11-16T16:09:28.048Z,83.31
2022-11-16T16:11:57.113Z,82.83
2022-11-16T16:14:29.410Z,83.31
2022-11-16T16:17:01.138Z,83.50
2022-11-16T16:19:53.301Z,83.65
2022-11-16T16:22:32.529Z,83.79
2022-11-16T16:24:58.895Z,84.08
2022-11-16T16:27:28.007Z,84.44
2022-11-16T16:29:56.614Z,84.25
2022-11-16T16:32:35.016Z,83.71
2022-11-16T16:35:03.903Z,84.20
2022-11-16T16:37:32.668Z,84.49
2022-11-16T16:39:59.355Z,84.51
2022-11-16T16:42:25.931Z,85.15
2022-11-16T16:44:53.764Z,85.16
2022-11-16T16:47:20.498Z,84.91
2022-11-16T16:49:50.913Z,84.96
2022-11-16T16:52:17.629Z,85.55
2022-11-16T16:54:43.913Z,85.34
2022-11-16T16:57:14.787Z,85.53
2022-11-16T16:59:42.395Z,85.46
2022-11-16T17:02:11.717Z,85.64
2022-11-16T17:04:39.920Z,85.21
2022-11-16T17:07:06.453Z,85.43
2022-11-16T17:09:33.025Z,85.84
2022-11-16T17:11:59.342Z,85.24
2022-11-16T17:14:25.676Z,85.90
2022-11-16T17:16:52.202Z,85.47
2022-11-16T17:19:20.105Z,85.59
2022-11-16T17:21:46.546Z,85.37
2022-11-16T17:24:12.862Z,85.46
2022-11-16T17:26:40.524Z,85.55
2022-11-16T17:29:07.275Z,85.82
2022-11-16T17:31:35.113Z,86.17
2022-11-16T17:34:05.705Z,85.52
2022-11-16T17:36:35.331Z,85.87
2022-11-16T17:39:01.785Z,85.92
2022-11-16T17:41:29.535Z,85.71
2022-11-16T17:43:56.994Z,86.24
2022-11-16T17:46:25.046Z,85.78
2022-11-16T17:48:52.180Z,86.25
2022-11-16T17:51:21.739Z,86.44
2022-11-16T17:53:48.302Z,86.63
2022-11-16T17:56:17.010Z,86.21
2022-11-16T17:58:46.528Z,86.12
2022-11-16T18:01:13.966Z,86.52
2022-11-16T18:03:42.090Z,86.14
2022-11-16T18:06:11.217Z,85.96
2022-11-16T18:08:37.841Z,85.97
2022-11-16T18:11:18.743Z,85.71
2022-11-16T18:13:47.729Z,85.64
2022-11-16T18:16:19.708Z,85.27
2022-11-16T18:18:47.138Z,85.95
2022-11-16T18:21:20.403Z,85.12
2022-11-16T18:23:47.644Z,84.73
2022-11-16T18:26:16.799Z,84.13
2022-11-16T18:28:49.359Z,84.58
2022-11-16T18:31:18.719Z,84.24
2022-11-16T18:33:45.532Z,84.98
2022-11-16T18:36:12.316Z,84.69
2022-11-16T18:38:39.129Z,84.48
2022-11-16T18:41:11.589Z,84.30
2022-11-16T18:43:39.444Z,84.41
2022-11-16T18:46:06.190Z,84.79
2022-11-16T18:48:32.590Z,84.56
2022-11-16T18:51:03.905Z,84.44
2022-11-16T18:53:32.094Z,83.61
2022-11-16T18:55:58.879Z,83.88
2022-11-16T18:58:49.195Z,83.78
2022-11-16T19:01:16.577Z,83.87
2022-11-16T19:03:43.271Z,84.06
2022-11-16T19:06:10.704Z,84.55
2022-11-16T19:08:38.428Z,84.36
2022-11-16T19:11:06.609Z,84.51
2022-11-16T19:13:33.936Z,84.23
2022-11-16T19:16:01.021Z,85.13
2022-11-16T19:18:27.698Z,84.97
2022-11-16T19:21:07.643Z,85.32
2022-11-16T19:23:46.211Z,85.09
2022-11-16T19:26:21.819Z,84.96
2022-11-16T19:28:49.791Z,85.52
2022-11-16T19:31:22.107Z,85.57
2022-11-16T19:33:52.537Z,85.98
2022-11-16T19:36:19.136Z,86.14
2022-11-16T19:38:47.402Z,85.89
2022-11-16T19:41:15.281Z,85.38
2022-11-16T19:43:42.296Z,85.69
2022-11-16T19:46:11.839Z,85.75
2022-11-16T19:48:38.932Z,85.42
2022-11-16T19:51:14.429Z,85.29
2022-11-16T19:53:41.133Z,85.64
2022-11-16T19:56:10.908Z,85.32
2022-11-16T19:58:37.596Z,85.23
2022-11-16T20:01:06.946Z,85.44
2022-11-16T20:03:34.103Z,84.81
2022-11-16T20:06:18.552Z,84.85
2022-11-16T20:08:50.585Z,84.94
2022-11-16T20:11:36.740Z,84.96
2022-11-16T20:14:05.125Z,85.05
2022-11-16T20:16:39.347Z,84.91
2022-11-16T20:19:07.537Z,84.76
2022-11-16T20:21:36.616Z,84.86
2022-11-16T20:24:06.993Z,84.81
2022-11-16T20:26:35.110Z,84.17
2022-11-16T20:29:01.748Z,84.61
2022-11-16T20:31:30.766Z,83.94
2022-11-16T20:33:58.999Z,84.62
2022-11-16T20:36:27.500Z,84.36
2022-11-16T20:38:54.177Z,83.98
2022-11-16T20:41:22.791Z,84.54
2022-11-16T20:43:56.979Z,84.49
2022-11-16T20:46:26.191Z,84.45
2022-11-16T20:48:52.813Z,83.74
2022-11-16T20:51:20.727Z,83.82
2022-11-16T20:53:48.475Z,83.41
2022-11-16T20:56:16.780Z,84.06
2022-11-16T20:58:45.534Z,83.99
2022-11-16T21:01:14.403Z,83.58
2022-11-16T21:03:41.084Z,83.51
2022-11-16T21:06:07.444Z,83.50
2022-11-16T21:08:33.832Z,83.51
2022-11-16T21:11:00.623Z,83.97
2022-11-16T21:13:26.926Z,83.81
2022-11-16T21:15:57.299Z,84.08
2022-11-16T21:18:29.339Z,84.02
2022-11-16T21:21:01.242Z,83.68
2022-11-16T21:23:28.575Z,83.88
2022-11-16T21:25:55.707Z,83.93
2022-11-16T21:28:25.464Z,83.95
2022-11-16T21:30:59.838Z,83.76
2022-11-16T21:33:26.915Z,84.31
2022-11-16T21:35:53.719Z,84.13
2022-11-16T21:38:21.639Z,84.34
2022-11-16T21:40:48.421Z,83.80
2022-11-16T21:43:15.659Z,84.59
2022-11-16T21:45:43.406Z,84.72
2022-11-16T21:48:09.769Z,84.38
2022-11-16T21:50:36.341Z,84.22
2022-11-16T21:53:03.963Z,84.28
2022-11-16T21:55:30.610Z,84.78
2022-11-16T21:57:57.479Z,84.87
2022-11-16T22:00:24.113Z,84.76
2022-11-16T22:02:50.571Z,84.94
2022-11-16T22:05:17.123Z,84.80
2022-11-16T22:07:44.607Z,84.92
2022-11-16T22:10:12.428Z,85.13
2022-11-16T22:12:38.988Z,85.29
2022-11-16T22:15:06.645Z,85.28
2022-11-16T22:17:33.329Z,84.89
2022-11-16T22:19:59.645Z,85.28
2022-11-16T22:22:26.104Z,84.99
2022-11-16T22:24:52.549Z,85.00
2022-11-16T22:27:19.154Z,85.59
2022-11-16T22:29:48.355Z,85.25
2022-11-16T22:32:14.674Z,85.99
2022-11-16T22:34:41.172Z,85.83
2022-11-16T22:37:07.472Z,85.83
2022-11-16T22:39:33.872Z,85.84
2022-11-16T22:42:00.189Z,85.63
2022-11-16T22:44:26.488Z,85.58
2022-11-16T22:46:52.809Z,86.57
2022-11-16T22:49:19.389Z,87.21
2022-11-16T22:51:45.758Z,87.75
2022-11-16T22:54:12.567Z,88.11
2022-11-16T22:56:39.272Z,88.39
2022-11-16T22:59:05.796Z,88.91
2022-11-16T23:01:32.514Z,88.98
2022-11-16T23:03:58.865Z,89.25
2022-11-16T23:06:25.193Z,89.47
2022-11-16T23:08:51.539Z,89.37
2022-11-16T23:11:20.207Z,89.56
2022-11-16T23:13:47.178Z,90.64
2022-11-16T23:16:13.479Z,89.94
2022-11-16T23:18:39.770Z,89.65
2022-11-16T23:21:06.109Z,90.67
2022-11-16T23:23:32.655Z,91.04
2022-11-16T23:25:59.279Z,91.11
2022-11-16T23:28:26.036Z,91.54
2022-11-16T23:30:52.510Z,91.52
2022-11-16T23:33:20.155Z,91.42
2022-11-16T23:35:46.460Z,91.75
2022-11-16T23:38:12.742Z,92.18
2022-11-16T23:40:39.918Z,92.22
2022-11-16T23:43:09.718Z,92.52
2022-11-16T23:45:36.119Z,92.25
2022-11-16T23:48:02.456Z,93.06
2022-11-16T23:50:28.793Z,93.50
2022-11-16T23:52:55.224Z,92.73
2022-11-16T23:55:21.670Z,92.52
2022-11-16T23:57:47.972Z,92.62
